createdAt,value
2018-07-05T00:00:25.901Z,9.97
2018-07-05T00:03:05.286Z,10.00
2018-07-05T00:05:44.925Z,9.90
2018-07-05T00:08:24.711Z,9.87
2018-07-05T00:11:04.172Z,10.07
2018-07-05T00:13:37.750Z,10.90
2018-07-05T00:16:17.366Z,10.20
2018-07-05T00:18:50.907Z,10.60
2018-07-05T00:21:31.043Z,10.83
2018-07-05T00:24:10.510Z,10.07
2018-07-05T00:26:50.219Z,10.07
2018-07-05T00:29:29.678Z,9.57
2018-07-05T00:32:03.018Z,10.47
2018-07-05T00:34:42.594Z,9.90
2018-07-05T00:37:22.002Z,10.03
2018-07-05T00:40:01.775Z,9.90
2018-07-05T00:42:41.302Z,9.47
2018-07-05T00:45:20.798Z,10.17
2018-07-05T00:48:00.233Z,10.00
2018-07-05T00:50:39.659Z,11.00
2018-07-05T00:53:19.262Z,10.03
2018-07-05T00:55:58.950Z,9.43
2018-07-05T00:58:38.539Z,10.27
2018-07-05T01:01:18.015Z,10.87
2018-07-05T01:03:57.627Z,11.07
2018-07-05T01:06:37.162Z,9.87
2018-07-05T01:09:16.606Z,11.17
2018-07-05T01:11:56.274Z,9.87
2018-07-05T01:14:35.803Z,9.13
2018-07-05T01:17:15.237Z,9.37
2018-07-05T01:19:54.682Z,10.30
2018-07-05T01:22:28.130Z,10.87
2018-07-05T01:25:07.815Z,10.07
2018-07-05T01:27:47.278Z,9.37
2018-07-05T01:30:26.842Z,10.23
2018-07-05T01:33:06.463Z,11.43
2018-07-05T01:35:46.046Z,10.13
2018-07-05T01:38:25.615Z,9.03
2018-07-05T01:40:59.189Z,10.60
2018-07-05T01:43:38.662Z,11.37
2018-07-05T01:46:18.035Z,11.20
2018-07-05T01:48:57.510Z,12.67
2018-07-05T01:51:37.140Z,12.87
2018-07-05T01:54:16.754Z,11.43
2018-07-05T01:56:56.283Z,13.10
2018-07-05T01:59:35.662Z,12.40
2018-07-05T02:02:09.261Z,12.10
2018-07-05T02:04:48.935Z,12.67
2018-07-05T02:07:28.556Z,12.00
2018-07-05T02:10:07.915Z,11.33
2018-07-05T02:12:47.245Z,13.43
2018-07-05T02:15:26.691Z,12.20
2018-07-05T02:18:06.266Z,11.87
2018-07-05T02:20:45.738Z,11.60
2018-07-05T02:23:25.133Z,12.53
2018-07-05T02:26:05.006Z,11.50
2018-07-05T02:28:44.563Z,13.23
2018-07-05T02:31:24.229Z,12.07
2018-07-05T02:34:10.882Z,14.70
2018-07-05T02:36:50.244Z,12.83
2018-07-05T02:39:35.212Z,13.20
2018-07-05T02:42:15.062Z,13.63
2018-07-05T02:44:55.134Z,14.70
2018-07-05T02:47:34.711Z,13.97
2018-07-05T02:50:14.547Z,13.50
2018-07-05T02:52:54.019Z,13.50
2018-07-05T02:55:33.447Z,11.50
2018-07-05T02:58:13.031Z,12.60
2018-07-05T03:00:52.513Z,13.57
2018-07-05T03:03:31.973Z,12.53
2018-07-05T03:06:11.396Z,14.03
2018-07-05T03:08:50.856Z,13.20
2018-07-05T03:11:30.289Z,13.70
2018-07-05T03:14:09.876Z,14.37
2018-07-05T03:16:49.379Z,16.50
2018-07-05T03:19:28.763Z,16.03
2018-07-05T03:22:08.154Z,15.43
2018-07-05T03:24:47.727Z,14.50
2018-07-05T03:27:27.287Z,15.83
2018-07-05T03:30:06.729Z,14.33
2018-07-05T03:32:46.282Z,14.90
2018-07-05T03:35:25.705Z,14.67
2018-07-05T03:38:05.243Z,15.20
2018-07-05T03:40:44.854Z,15.97
2018-07-05T03:43:24.430Z,16.47
2018-07-05T03:46:04.082Z,16.57
2018-07-05T03:48:43.603Z,15.43
2018-07-05T03:51:17.197Z,15.00
2018-07-05T03:53:56.808Z,14.53
2018-07-05T03:56:36.270Z,14.23
2018-07-05T03:59:15.854Z,13.97
2018-07-05T04:01:49.330Z,14.03
2018-07-05T04:04:28.918Z,14.47
2018-07-05T04:07:08.483Z,14.97
2018-07-05T04:09:48.110Z,14.60
2018-07-05T04:12:27.787Z,14.30
2018-07-05T04:15:07.251Z,14.50
2018-07-05T04:17:46.706Z,13.23
2018-07-05T04:20:26.471Z,12.57
2018-07-05T04:23:05.919Z,11.70
2018-07-05T04:25:45.554Z,11.77
2018-07-05T04:28:25.003Z,11.33
2018-07-05T04:38:38.039Z,11.07
2018-07-05T04:41:17.540Z,11.10
2018-07-05T04:43:57.183Z,11.10
2018-07-05T04:46:36.679Z,11.33
2018-07-05T04:56:55.647Z,10.70
2018-07-05T04:59:35.404Z,11.37
2018-07-05T05:02:15.156Z,11.23
2018-07-05T05:04:54.717Z,12.33
2018-07-05T05:07:34.127Z,14.10
2018-07-05T05:10:13.738Z,12.20
2018-07-05T05:12:53.320Z,13.03
2018-07-05T05:15:32.696Z,11.40
2018-07-05T05:18:12.135Z,10.37
2018-07-05T05:20:51.648Z,8.47
2018-07-05T05:23:31.163Z,8.00
2018-07-05T05:26:04.601Z,7.60
2018-07-05T05:28:44.038Z,7.53
2018-07-05T05:31:23.403Z,7.50
2018-07-05T05:34:02.838Z,7.63
2018-07-05T05:36:42.354Z,7.10
2018-07-05T05:39:21.876Z,6.43
2018-07-05T05:42:01.236Z,6.57
2018-07-05T05:44:40.738Z,6.20
2018-07-05T05:47:20.243Z,6.70
2018-07-05T05:49:59.875Z,7.33
2018-07-05T05:52:39.418Z,7.97
2018-07-05T05:55:18.962Z,7.70
2018-07-05T05:57:58.498Z,8.03
2018-07-05T06:00:38.035Z,9.27
2018-07-05T06:03:11.595Z,8.73
2018-07-05T06:05:51.142Z,8.10
2018-07-05T06:13:37.239Z,7.25
2018-07-05T06:33:56.651Z,8.70
2018-07-05T07:14:48.178Z,4.60
2018-07-05T07:27:40.071Z,4.93
2018-07-05T07:30:20.023Z,4.50
2018-07-05T07:32:59.679Z,4.27
2018-07-05T07:35:39.093Z,4.07
2018-07-05T07:48:06.049Z,3.80
2018-07-05T07:50:33.147Z,3.80
2018-07-05T08:17:29.246Z,2.90
2018-07-05T08:22:23.232Z,2.70
2018-07-05T08:24:50.330Z,2.60
2018-07-05T08:41:58.991Z,2.00
2018-07-05T08:44:26.095Z,1.90
2018-07-05T08:49:20.086Z,2.67
2018-07-05T08:51:47.194Z,2.00
2018-07-05T08:54:14.448Z,1.85
2018-07-05T09:01:35.336Z,1.90
2018-07-05T09:11:23.118Z,1.80
2018-07-05T09:13:51.219Z,1.60
2018-07-05T09:16:18.314Z,1.50
2018-07-05T09:18:45.414Z,1.80
2018-07-05T09:21:12.515Z,1.63
2018-07-05T09:23:39.640Z,1.40
2018-07-05T09:26:06.722Z,1.50
2018-07-05T09:28:33.814Z,1.70
2018-07-05T09:31:00.915Z,1.90
2018-07-05T09:33:28.010Z,1.87
2018-07-05T09:50:36.482Z,2.30
2018-07-05T09:53:03.588Z,1.90
2018-07-05T10:00:29.911Z,2.07
2018-07-05T10:05:23.907Z,17.50
2018-07-05T10:12:44.786Z,6.07
2018-07-05T10:15:11.895Z,22.40
2018-07-05T10:17:38.990Z,3.50
2018-07-05T10:20:06.094Z,1.70
2018-07-05T10:22:33.194Z,2.90
2018-07-05T10:30:06.662Z,2.00
2018-07-05T10:42:46.430Z,1.70
2018-07-05T10:45:25.929Z,1.60
2018-07-05T10:48:05.454Z,1.77
2018-07-05T10:50:38.833Z,1.47
2018-07-05T10:53:18.498Z,2.30
2018-07-05T10:55:58.158Z,2.20
2018-07-05T10:58:37.696Z,2.10
2018-07-05T11:01:17.340Z,2.47
2018-07-05T11:09:04.698Z,2.20
2018-07-05T11:11:44.434Z,2.10
2018-07-05T11:14:24.010Z,2.67
2018-07-05T11:17:03.430Z,2.63
2018-07-05T11:19:36.793Z,2.27
2018-07-05T11:22:16.175Z,2.10
2018-07-05T11:24:55.666Z,2.40
2018-07-05T11:27:35.187Z,2.70
2018-07-05T11:30:14.711Z,2.30
2018-07-05T11:32:54.239Z,2.30
2018-07-05T11:35:33.926Z,2.10
2018-07-05T11:38:13.494Z,2.20
2018-07-05T11:43:26.302Z,2.13
2018-07-05T11:46:05.795Z,2.20
2018-07-05T11:48:45.506Z,2.33
2018-07-05T11:51:25.002Z,2.57
2018-07-05T11:54:04.530Z,3.00
2018-07-05T11:56:43.970Z,3.63
2018-07-05T11:59:23.519Z,3.90
2018-07-05T12:01:56.998Z,3.60
2018-07-05T12:04:36.538Z,3.47
2018-07-05T12:07:16.050Z,3.40
2018-07-05T12:09:55.603Z,3.03
2018-07-05T12:12:35.107Z,1.87
2018-07-05T12:15:14.582Z,2.13
2018-07-05T12:17:54.194Z,2.17
2018-07-05T12:20:33.731Z,2.65
2018-07-05T12:23:13.542Z,2.23
2018-07-05T12:25:53.107Z,3.00
2018-07-05T12:28:32.559Z,2.20
2018-07-05T12:31:12.146Z,2.53
2018-07-05T12:33:51.527Z,2.70
2018-07-05T12:36:31.565Z,2.47
2018-07-05T12:41:44.167Z,2.80
2018-07-05T12:44:23.506Z,2.97
2018-07-05T12:47:02.942Z,3.23
2018-07-05T12:49:42.414Z,3.30
2018-07-05T12:52:21.934Z,4.37
2018-07-05T12:55:01.367Z,4.50
2018-07-05T12:57:40.971Z,6.13
2018-07-05T13:00:20.428Z,8.47
2018-07-05T13:02:59.970Z,8.93
2018-07-05T13:05:39.438Z,11.97
2018-07-05T13:08:18.995Z,11.85
2018-07-05T13:10:58.738Z,13.90
2018-07-05T13:13:38.461Z,13.80
2018-07-05T13:16:18.663Z,11.53
2018-07-05T13:18:58.324Z,11.30
2018-07-05T13:21:38.151Z,11.27
2018-07-05T13:24:17.819Z,13.37
2018-07-05T13:26:57.426Z,10.83
2018-07-05T13:29:36.882Z,11.80
2018-07-05T13:32:16.394Z,11.30
2018-07-05T13:34:55.883Z,9.87
2018-07-05T13:37:35.602Z,10.40
2018-07-05T13:40:15.128Z,9.73
2018-07-05T13:42:54.724Z,8.73
2018-07-05T13:45:34.251Z,8.37
2018-07-05T14:34:17.819Z,5.77
2018-07-05T14:36:57.411Z,5.43
2018-07-05T14:39:37.042Z,4.40
2018-07-05T14:42:16.438Z,4.30
2018-07-05T14:44:56.086Z,4.27
2018-07-05T14:47:35.593Z,4.27
2018-07-05T14:50:09.241Z,4.53
2018-07-05T14:52:48.751Z,4.40
2018-07-05T14:55:28.350Z,4.30
2018-07-05T14:58:08.214Z,4.40
2018-07-05T15:00:47.686Z,4.70
2018-07-05T15:03:27.263Z,5.10
2018-07-05T15:06:06.867Z,4.33
2018-07-05T15:08:46.543Z,4.03
2018-07-05T15:11:26.051Z,4.13
2018-07-05T15:14:05.610Z,4.57
2018-07-05T15:16:45.140Z,5.33
2018-07-05T15:19:18.609Z,4.83
2018-07-05T15:21:58.107Z,4.40
2018-07-05T15:24:37.811Z,4.10
2018-07-05T15:27:17.206Z,4.03
2018-07-05T15:29:56.738Z,4.30
2018-07-05T15:32:36.359Z,4.57
2018-07-05T15:35:15.703Z,4.03
2018-07-05T15:37:55.186Z,3.93
2018-07-05T15:40:34.874Z,3.87
2018-07-05T15:43:14.403Z,3.97
2018-07-05T15:45:53.999Z,3.73
2018-07-05T15:48:33.498Z,3.70
2018-07-05T15:51:13.010Z,3.80
2018-07-05T15:53:52.515Z,3.77
2018-07-05T15:56:31.938Z,3.60
2018-07-05T15:59:11.492Z,4.00
2018-07-05T16:01:51.094Z,3.93
2018-07-05T16:04:24.598Z,4.00
2018-07-05T16:07:04.258Z,4.40
2018-07-05T16:09:44.083Z,4.67
2018-07-05T16:12:23.530Z,4.87
2018-07-05T16:15:03.038Z,5.53
2018-07-05T16:17:42.464Z,6.17
2018-07-05T16:20:22.003Z,6.70
2018-07-05T16:23:01.454Z,6.50
2018-07-05T16:25:40.988Z,7.30
2018-07-05T16:28:20.666Z,7.33
2018-07-05T16:31:00.059Z,8.17
2018-07-05T16:33:39.565Z,7.90
2018-07-05T16:36:19.095Z,8.10
2018-07-05T16:38:58.550Z,9.10
2018-07-05T16:41:38.138Z,9.57
2018-07-05T16:44:17.550Z,9.80
2018-07-05T16:46:57.018Z,9.17
2018-07-05T16:49:36.610Z,9.40
2018-07-05T16:52:16.011Z,10.07
2018-07-05T16:54:55.492Z,10.47
2018-07-05T16:57:35.077Z,8.50
2018-07-05T17:00:14.614Z,9.93
2018-07-05T17:02:54.137Z,9.20
2018-07-05T17:05:33.819Z,8.93
2018-07-05T17:08:13.494Z,8.67
2018-07-05T17:10:53.194Z,8.93
2018-07-05T17:13:32.674Z,8.73
2018-07-05T17:16:12.302Z,9.10
2018-07-05T17:18:51.998Z,10.07
2018-07-05T17:21:31.674Z,10.43
2018-07-05T17:24:11.162Z,9.60
2018-07-05T17:26:50.822Z,9.73
2018-07-05T17:29:30.274Z,10.13
2018-07-05T17:32:09.803Z,9.90
2018-07-05T17:34:49.355Z,8.60
2018-07-05T17:37:28.946Z,8.23
2018-07-05T17:40:08.446Z,8.40
2018-07-05T17:42:47.898Z,8.57
2018-07-05T17:45:27.424Z,7.83
2018-07-05T17:48:07.114Z,8.07
2018-07-05T17:50:46.746Z,9.50
2018-07-05T17:53:26.237Z,8.10
2018-07-05T17:56:05.775Z,7.13
2018-07-05T17:58:45.338Z,8.50
2018-07-05T18:01:24.790Z,8.27
2018-07-05T18:04:04.290Z,8.13
2018-07-05T18:06:44.026Z,7.63
2018-07-05T18:09:23.618Z,8.10
2018-07-05T18:12:03.009Z,7.43
2018-07-05T18:14:42.421Z,7.20
2018-07-05T18:17:22.049Z,7.03
2018-07-05T18:20:01.702Z,6.40
2018-07-05T18:22:41.133Z,5.90
2018-07-05T18:25:14.734Z,6.27
2018-07-05T18:27:48.494Z,6.83
2018-07-05T18:30:28.058Z,6.43
2018-07-05T18:33:07.614Z,6.13
2018-07-05T18:35:47.147Z,5.87
2018-07-05T18:38:26.631Z,6.20
2018-07-05T18:41:06.109Z,6.63
2018-07-05T18:43:45.833Z,6.53
2018-07-05T18:46:25.332Z,6.30
2018-07-05T18:49:04.982Z,5.70
2018-07-05T18:51:44.512Z,6.40
2018-07-05T18:54:24.075Z,6.30
2018-07-05T18:57:03.510Z,6.33
2018-07-05T18:59:43.023Z,6.60
2018-07-05T19:02:22.496Z,6.33
2018-07-05T19:05:02.064Z,6.20
2018-07-05T19:07:41.766Z,6.50
2018-07-05T19:10:21.123Z,7.20
2018-07-05T19:13:00.590Z,7.10
2018-07-05T19:15:39.986Z,7.00
2018-07-05T19:18:13.462Z,6.67
2018-07-05T19:20:47.020Z,6.83
2018-07-05T19:23:26.646Z,6.53
2018-07-05T19:26:06.094Z,5.77
2018-07-05T19:28:45.506Z,6.10
2018-07-05T19:31:25.092Z,5.67
2018-07-05T19:34:04.672Z,6.37
2018-07-05T19:36:38.035Z,5.87
2018-07-05T19:39:17.514Z,5.07
2018-07-05T19:41:57.118Z,5.00
2018-07-05T19:44:36.626Z,4.87
2018-07-05T19:47:10.288Z,4.93
2018-07-05T19:49:43.906Z,4.07
2018-07-05T19:52:23.475Z,5.03
2018-07-05T19:55:03.200Z,4.83
2018-07-05T19:57:42.686Z,5.10
2018-07-05T20:00:22.167Z,6.00
2018-07-05T20:02:55.630Z,5.03
2018-07-05T20:05:35.290Z,5.40
2018-07-05T20:08:14.722Z,6.10
2018-07-05T20:10:52.541Z,6.50
2018-07-05T20:13:32.060Z,5.80
2018-07-05T20:16:11.475Z,6.30
2018-07-05T20:18:51.043Z,7.50
2018-07-05T20:21:30.652Z,8.43
2018-07-05T20:24:10.211Z,8.63
2018-07-05T20:26:49.754Z,9.57
2018-07-05T20:29:23.353Z,9.83
2018-07-05T20:32:02.930Z,9.40
2018-07-05T20:34:42.391Z,8.57
2018-07-05T20:37:15.809Z,8.33
2018-07-05T20:39:55.543Z,8.80
2018-07-05T20:42:35.123Z,9.00
2018-07-05T20:45:14.559Z,8.13
2018-07-05T20:47:53.993Z,8.67
2018-07-05T20:50:33.478Z,8.13
2018-07-05T20:53:12.995Z,7.07
2018-07-05T20:55:52.735Z,7.10
2018-07-05T20:58:32.520Z,6.77
2018-07-05T21:01:12.103Z,7.70
2018-07-05T21:03:45.597Z,8.83
2018-07-05T21:06:25.234Z,8.73
2018-07-05T21:09:05.387Z,7.63
2018-07-05T21:11:45.091Z,7.20
2018-07-05T21:14:24.759Z,8.10
2018-07-05T21:17:04.235Z,8.50
2018-07-05T21:19:43.758Z,7.20
2018-07-05T21:22:23.054Z,8.43
2018-07-05T21:25:02.823Z,6.70
2018-07-05T21:27:42.259Z,7.57
2018-07-05T21:30:21.693Z,8.03
2018-07-05T21:33:01.243Z,7.43
2018-07-05T21:35:40.802Z,7.47
2018-07-05T21:38:20.307Z,8.13
2018-07-05T21:40:59.859Z,8.80
2018-07-05T21:43:39.375Z,7.73
2018-07-05T21:46:18.886Z,8.17
2018-07-05T21:48:52.489Z,8.47
2018-07-05T21:51:32.155Z,6.80
2018-07-05T21:54:11.607Z,6.87
2018-07-05T21:56:51.180Z,6.83
2018-07-05T21:59:30.619Z,6.57
2018-07-05T22:02:10.074Z,7.20
2018-07-05T22:04:49.551Z,7.27
2018-07-05T22:07:29.087Z,6.90
2018-07-05T22:10:08.800Z,8.40
2018-07-05T22:12:48.511Z,7.90
2018-07-05T22:15:28.066Z,7.83
2018-07-05T22:18:13.139Z,6.20
2018-07-05T22:20:58.082Z,7.23
2018-07-05T22:23:42.975Z,7.13
2018-07-05T22:26:28.107Z,6.93
2018-07-05T22:29:13.269Z,6.93
2018-07-05T22:31:56.125Z,8.17
2018-07-05T22:34:35.716Z,7.80
2018-07-05T22:37:15.151Z,7.57
2018-07-05T22:39:55.199Z,7.70
2018-07-05T22:42:35.050Z,7.37
2018-07-05T22:45:14.530Z,7.03
2018-07-05T22:47:54.050Z,6.40
2018-07-05T22:50:33.907Z,6.93
2018-07-05T22:53:13.303Z,6.10
2018-07-05T22:55:53.487Z,5.47
2018-07-05T22:58:33.401Z,6.03
2018-07-05T23:01:13.239Z,6.30
2018-07-05T23:03:52.827Z,6.30
2018-07-05T23:06:32.364Z,5.50
2018-07-05T23:09:11.961Z,4.90
2018-07-05T23:11:51.450Z,5.70
2018-07-05T23:14:30.915Z,5.77
2018-07-05T23:17:04.525Z,6.07
2018-07-05T23:19:44.147Z,5.80
2018-07-05T23:22:23.987Z,6.57
2018-07-05T23:25:03.499Z,6.73
2018-07-05T23:27:43.043Z,6.97
2018-07-05T23:30:22.656Z,6.53
2018-07-05T23:33:02.266Z,6.30
2018-07-05T23:35:41.777Z,6.50
2018-07-05T23:38:15.364Z,7.10
2018-07-05T23:40:48.954Z,6.77
2018-07-05T23:43:28.727Z,6.73
2018-07-05T23:56:08.638Z,7.10
2018-07-05T23:58:48.188Z,7.10
